Houma, LA (70363)

7:24 PM CDT on July 24, 2016 (GMT -0500)
ASHLAND NORTH | | Change Station

Elev 3 ft 29.54 °N, 90.67 °W | Updated 13 seconds ago

Scattered Clouds
Scattered Clouds
80.1 °F
Feels Like 85 °F
N
2.2
Wind Variable Wind from NW
Gusts 3.1 mph

Today
High -- | Low -- °F
--% Chance of Precip.
Yesterday
High -- | Low -- °F
Precip. -- in
Pressure 29.96 in
Visibility 10.0 miles
Clouds Scattered Clouds 5000 ft
Heat Index 85 °F
Dew Point 75 °F
Humidity 84%
Rainfall 0.39 in
Snow Depth Not available.
6:18 AM 8:00 PM
Waning Gibbous, 71% visible
METAR KHUM 250015Z AUTO 36003KT 10SM SCT050 26/24 A2996 RMK AO2 T02600236
Pressure 29.96 in
Visibility 10.0 miles
Clouds Scattered Clouds 5000 ft
Heat Index 85 °F
Dew Point 75 °F
Humidity 84%
Rainfall 0.39 in
Snow Depth Not available.
6:18 AM 8:00 PM
Waning Gibbous, 71% visible
METAR KHUM 250015Z AUTO 36003KT 10SM SCT050 26/24 A2996 RMK AO2 T02600236

10-Day Weather Forecast

Almanac

Astronomy

Jul. 24, 2016 Rise Set
Actual Time
Civil Twilight
Nautical Twilight
Astronomical Twilight
Moon
Length of Visible Light
Length of Day
Tomorrow will be .
, % of the Moon is Illuminated

Today's Extremes

State Highs State Lows

Community

WunderPhotos

Upload Photos

1,927,212 photos uploaded!

WunderBlog® & News

Nearby

Air Quality

  Air Quality AQ Index Pollutant
Not available.

Snow Depth

Station Depth Elevation

Earthquake Activity

City Distance Mag. Time & Date
Minimum magnitude displayed is 2.5.

Coastal Water Temperatures

Place Temperature

Stations

Nearby Weather Stations

Station Location Temp. Windchill Dew Point Humidity Wind Precip. Elev Updated Type
                   

Watches & Warnings

There are currently no watches in effect.